sensor_id;sensor_type;location;lat;lon;timestamp;temperature;humidity
69533;DHT22;56729;52.036;5.332;2023-11-19T00:00:48;13.80;99.90
69533;DHT22;56729;52.036;5.332;2023-11-19T00:01:53;13.80;99.90
69533;DHT22;56729;52.036;5.332;2023-11-19T00:02:55;13.80;99.90
69533;DHT22;56729;52.036;5.332;2023-11-19T00:03:57;13.80;99.90
69533;DHT22;56729;52.036;5.332;2023-11-19T00:04:59;13.90;99.90
69533;DHT22;56729;52.036;5.332;2023-11-19T00:06:01;13.90;99.90
69533;DHT22;56729;52.036;5.332;2023-11-19T00:07:05;13.80;99.90
69533;DHT22;56729;52.036;5.332;2023-11-19T00:08:08;13.80;99.90
69533;DHT22;56729;52.036;5.332;2023-11-19T00:09:10;13.80;99.90
69533;DHT22;56729;52.036;5.332;2023-11-19T00:10:14;13.80;99.90
69533;DHT22;56729;52.036;5.332;2023-11-19T00:11:20;13.80;99.90
69533;DHT22;56729;52.036;5.332;2023-11-19T00:12:22;13.80;99.90
69533;DHT22;56729;52.036;5.332;2023-11-19T00:13:24;13.80;99.90
69533;DHT22;56729;52.036;5.332;2023-11-19T00:14:27;13.80;99.90
69533;DHT22;56729;52.036;5.332;2023-11-19T00:15:30;13.80;99.90
69533;DHT22;56729;52.036;5.332;2023-11-19T00:16:33;13.80;99.90
69533;DHT22;56729;52.036;5.332;2023-11-19T00:17:35;13.80;99.90
69533;DHT22;56729;52.036;5.332;2023-11-19T00:18:36;13.80;99.90
69533;DHT22;56729;52.036;5.332;2023-11-19T00:19:38;13.80;99.90
69533;DHT22;56729;52.036;5.332;2023-11-19T00:20:40;13.80;99.90
69533;DHT22;56729;52.036;5.332;2023-11-19T00:21:43;13.80;99.90
69533;DHT22;56729;52.036;5.332;2023-11-19T00:22:45;13.80;99.90
69533;DHT22;56729;52.036;5.332;2023-11-19T00:23:53;13.80;99.90
69533;DHT22;56729;52.036;5.332;2023-11-19T00:24:55;13.80;99.90
69533;DHT22;56729;52.036;5.332;2023-11-19T00:25:57;13.80;99.90
69533;DHT22;56729;52.036;5.332;2023-11-19T00:26:59;13.90;99.90
69533;DHT22;56729;52.036;5.332;2023-11-19T00:28:01;13.90;99.90
69533;DHT22;56729;52.036;5.332;2023-11-19T00:29:03;13.90;99.90
69533;DHT22;56729;52.036;5.332;2023-11-19T00:30:06;13.90;99.90
69533;DHT22;56729;52.036;5.332;2023-11-19T00:31:08;13.90;99.90
69533;DHT22;56729;52.036;5.332;2023-11-19T00:32:10;13.90;99.90
69533;DHT22;56729;52.036;5.332;2023-11-19T00:33:13;13.90;99.90
69533;DHT22;56729;52.036;5.332;2023-11-19T00:34:15;13.90;99.90
69533;DHT22;56729;52.036;5.332;2023-11-19T00:35:17;13.90;99.90
69533;DHT22;56729;52.036;5.332;2023-11-19T00:36:20;13.90;99.90
69533;DHT22;56729;52.036;5.332;2023-11-19T00:37:22;13.90;99.90
69533;DHT22;56729;52.036;5.332;2023-11-19T00:38:24;13.90;99.90
69533;DHT22;56729;52.036;5.332;2023-11-19T00:39:26;13.90;99.90
69533;DHT22;56729;52.036;5.332;2023-11-19T00:40:28;13.90;99.90
69533;DHT22;56729;52.036;5.332;2023-11-19T00:41:30;13.90;99.90
69533;DHT22;56729;52.036;5.332;2023-11-19T00:42:32;13.90;99.90
69533;DHT22;56729;52.036;5.332;2023-11-19T00:43:34;13.90;99.90
69533;DHT22;56729;52.036;5.332;2023-11-19T00:44:36;13.90;99.90
69533;DHT22;56729;52.036;5.332;2023-11-19T00:45:38;13.90;99.90
69533;DHT22;56729;52.036;5.332;2023-11-19T00:46:40;13.90;99.90
69533;DHT22;56729;52.036;5.332;2023-11-19T00:47:42;13.90;99.90
69533;DHT22;56729;52.036;5.332;2023-11-19T00:48:44;13.90;99.90
69533;DHT22;56729;52.036;5.332;2023-11-19T00:49:49;13.90;99.90
69533;DHT22;56729;52.036;5.332;2023-11-19T00:50:51;13.90;99.90
69533;DHT22;56729;52.036;5.332;2023-11-19T00:51:53;13.90;99.90
69533;DHT22;56729;52.036;5.332;2023-11-19T00:52:55;13.90;99.90
69533;DHT22;56729;52.036;5.332;2023-11-19T00:53:58;13.90;99.90
69533;DHT22;56729;52.036;5.332;2023-11-19T00:55:00;13.90;99.90
69533;DHT22;56729;52.036;5.332;2023-11-19T00:56:03;13.90;99.90
69533;DHT22;56729;52.036;5.332;2023-11-19T00:57:05;13.90;99.90
69533;DHT22;56729;52.036;5.332;2023-11-19T00:58:08;13.90;99.90
69533;DHT22;56729;52.036;5.332;2023-11-19T00:59:10;13.90;99.90
69533;DHT22;56729;52.036;5.332;2023-11-19T01:00:13;13.90;99.90
69533;DHT22;56729;52.036;5.332;2023-11-19T01:01:26;13.90;99.90
69533;DHT22;56729;52.036;5.332;2023-11-19T01:02:28;13.90;99.90
69533;DHT22;56729;52.036;5.332;2023-11-19T01:03:30;13.90;99.90
69533;DHT22;56729;52.036;5.332;2023-11-19T01:04:35;13.90;99.90
69533;DHT22;56729;52.036;5.332;2023-11-19T01:05:37;13.90;99.90
69533;DHT22;56729;52.036;5.332;2023-11-19T01:06:39;13.90;99.90
69533;DHT22;56729;52.036;5.332;2023-11-19T01:07:50;13.90;99.90
69533;DHT22;56729;52.036;5.332;2023-11-19T01:08:54;13.90;99.90
69533;DHT22;56729;52.036;5.332;2023-11-19T01:09:56;13.90;99.90
69533;DHT22;56729;52.036;5.332;2023-11-19T01:10:59;13.90;99.90
69533;DHT22;56729;52.036;5.332;2023-11-19T01:12:02;13.90;99.90
69533;DHT22;56729;52.036;5.332;2023-11-19T01:13:05;13.90;99.90
69533;DHT22;56729;52.036;5.332;2023-11-19T01:14:10;13.90;99.90
69533;DHT22;56729;52.036;5.332;2023-11-19T01:15:12;13.90;99.90
69533;DHT22;56729;52.036;5.332;2023-11-19T01:16:15;13.90;99.90
69533;DHT22;56729;52.036;5.332;2023-11-19T01:17:17;13.90;99.90
69533;DHT22;56729;52.036;5.332;2023-11-19T01:18:19;13.90;99.90
69533;DHT22;56729;52.036;5.332;2023-11-19T01:19:21;13.90;99.90
69533;DHT22;56729;52.036;5.332;2023-11-19T01:20:24;13.90;99.90
69533;DHT22;56729;52.036;5.332;2023-11-19T01:21:29;13.90;99.90
69533;DHT22;56729;52.036;5.332;2023-11-19T01:22:31;13.90;99.90
69533;DHT22;56729;52.036;5.332;2023-11-19T01:23:34;13.90;99.90
69533;DHT22;56729;52.036;5.332;2023-11-19T01:24:36;13.90;99.90
69533;DHT22;56729;52.036;5.332;2023-11-19T01:25:38;13.90;99.90
69533;DHT22;56729;52.036;5.332;2023-11-19T01:26:40;13.90;99.90
69533;DHT22;56729;52.036;5.332;2023-11-19T01:27:47;13.90;99.90
69533;DHT22;56729;52.036;5.332;2023-11-19T01:28:49;13.90;99.90
69533;DHT22;56729;52.036;5.332;2023-11-19T01:29:54;13.90;99.90
69533;DHT22;56729;52.036;5.332;2023-11-19T01:30:56;13.90;99.90
69533;DHT22;56729;52.036;5.332;2023-11-19T01:31:59;13.90;99.90
69533;DHT22;56729;52.036;5.332;2023-11-19T01:33:01;13.90;99.90
69533;DHT22;56729;52.036;5.332;2023-11-19T01:34:03;13.90;99.90
69533;DHT22;56729;52.036;5.332;2023-11-19T01:35:05;13.90;99.90
69533;DHT22;56729;52.036;5.332;2023-11-19T01:36:08;13.90;99.90
69533;DHT22;56729;52.036;5.332;2023-11-19T01:37:10;13.90;99.90
69533;DHT22;56729;52.036;5.332;2023-11-19T01:38:13;13.90;99.90
69533;DHT22;56729;52.036;5.332;2023-11-19T01:39:16;13.90;99.90
69533;DHT22;56729;52.036;5.332;2023-11-19T01:40:22;13.90;99.90
69533;DHT22;56729;52.036;5.332;2023-11-19T01:41:25;13.90;99.90
69533;DHT22;56729;52.036;5.332;2023-11-19T01:42:27;13.90;99.90
69533;DHT22;56729;52.036;5.332;2023-11-19T01:43:36;13.90;99.90
69533;DHT22;56729;52.036;5.332;2023-11-19T01:44:38;13.90;99.90
69533;DHT22;56729;52.036;5.332;2023-11-19T01:45:41;13.90;99.90
69533;DHT22;56729;52.036;5.332;2023-11-19T01:46:45;13.90;99.90
69533;DHT22;56729;52.036;5.332;2023-11-19T01:47:50;13.90;99.90
69533;DHT22;56729;52.036;5.332;2023-11-19T01:48:54;13.90;99.90
69533;DHT22;56729;52.036;5.332;2023-11-19T01:49:57;13.90;99.90
69533;DHT22;56729;52.036;5.332;2023-11-19T01:51:05;13.90;99.90
69533;DHT22;56729;52.036;5.332;2023-11-19T01:52:08;13.90;99.90
69533;DHT22;56729;52.036;5.332;2023-11-19T01:53:10;13.90;99.90
69533;DHT22;56729;52.036;5.332;2023-11-19T01:54:12;13.90;99.90
69533;DHT22;56729;52.036;5.332;2023-11-19T01:55:14;13.90;99.90
69533;DHT22;56729;52.036;5.332;2023-11-19T01:56:16;13.90;99.90
69533;DHT22;56729;52.036;5.332;2023-11-19T01:57:21;13.90;99.90
69533;DHT22;56729;52.036;5.332;2023-11-19T01:58:24;13.90;99.90
69533;DHT22;56729;52.036;5.332;2023-11-19T01:59:26;13.80;99.90
69533;DHT22;56729;52.036;5.332;2023-11-19T02:00:29;13.80;99.90
69533;DHT22;56729;52.036;5.332;2023-11-19T02:01:32;13.80;99.90
69533;DHT22;56729;52.036;5.332;2023-11-19T02:02:36;13.80;99.90
69533;DHT22;56729;52.036;5.332;2023-11-19T02:03:39;13.80;99.90
69533;DHT22;56729;52.036;5.332;2023-11-19T02:04:41;13.80;99.90
69533;DHT22;56729;52.036;5.332;2023-11-19T02:05:43;13.80;99.90
69533;DHT22;56729;52.036;5.332;2023-11-19T02:06:48;13.80;99.90
69533;DHT22;56729;52.036;5.332;2023-11-19T02:07:51;13.80;99.90
69533;DHT22;56729;52.036;5.332;2023-11-19T02:08:53;13.70;99.90
69533;DHT22;56729;52.036;5.332;2023-11-19T02:09:55;13.70;99.90
69533;DHT22;56729;52.036;5.332;2023-11-19T02:11:00;13.70;99.90
69533;DHT22;56729;52.036;5.332;2023-11-19T02:12:02;13.70;99.90
69533;DHT22;56729;52.036;5.332;2023-11-19T02:13:04;13.70;99.90
69533;DHT22;56729;52.036;5.332;2023-11-19T02:14:08;13.60;99.90
69533;DHT22;56729;52.036;5.332;2023-11-19T02:15:10;13.60;99.90
69533;DHT22;56729;52.036;5.332;2023-11-19T02:16:12;13.60;99.90
69533;DHT22;56729;52.036;5.332;2023-11-19T02:17:30;13.60;99.90
69533;DHT22;56729;52.036;5.332;2023-11-19T02:18:36;13.60;99.90
69533;DHT22;56729;52.036;5.332;2023-11-19T02:19:38;13.60;99.90
69533;DHT22;56729;52.036;5.332;2023-11-19T02:20:40;13.60;99.90
69533;DHT22;56729;52.036;5.332;2023-11-19T02:21:42;13.50;99.90
69533;DHT22;56729;52.036;5.332;2023-11-19T02:22:44;13.50;99.90
69533;DHT22;56729;52.036;5.332;2023-11-19T02:23:47;13.50;99.90
69533;DHT22;56729;52.036;5.332;2023-11-19T02:24:56;13.50;99.90
69533;DHT22;56729;52.036;5.332;2023-11-19T02:28:09;13.50;99.90
69533;DHT22;56729;52.036;5.332;2023-11-19T02:28:46;13.40;99.90
69533;DHT22;56729;52.036;5.332;2023-11-19T02:29:48;13.40;99.90
69533;DHT22;56729;52.036;5.332;2023-11-19T02:30:51;13.40;99.90
69533;DHT22;56729;52.036;5.332;2023-11-19T02:31:53;13.40;99.90
69533;DHT22;56729;52.036;5.332;2023-11-19T02:33:00;13.40;99.90
69533;DHT22;56729;52.036;5.332;2023-11-19T02:34:07;13.40;99.90
69533;DHT22;56729;52.036;5.332;2023-11-19T02:35:09;13.30;99.90
69533;DHT22;56729;52.036;5.332;2023-11-19T02:36:11;13.30;99.90
69533;DHT22;56729;52.036;5.332;2023-11-19T02:37:13;13.30;99.90
69533;DHT22;56729;52.036;5.332;2023-11-19T02:38:16;13.30;99.90
69533;DHT22;56729;52.036;5.332;2023-11-19T02:39:18;13.30;99.90
69533;DHT22;56729;52.036;5.332;2023-11-19T02:40:23;13.30;99.90
69533;DHT22;56729;52.036;5.332;2023-11-19T02:41:26;13.30;99.90
69533;DHT22;56729;52.036;5.332;2023-11-19T02:42:29;13.30;99.90
69533;DHT22;56729;52.036;5.332;2023-11-19T02:43:32;13.30;99.90
69533;DHT22;56729;52.036;5.332;2023-11-19T02:44:35;13.20;99.90
69533;DHT22;56729;52.036;5.332;2023-11-19T02:45:37;13.20;99.90
69533;DHT22;56729;52.036;5.332;2023-11-19T02:46:39;13.20;99.90
69533;DHT22;56729;52.036;5.332;2023-11-19T02:47:44;13.20;99.90
69533;DHT22;56729;52.036;5.332;2023-11-19T02:48:46;13.20;99.90
69533;DHT22;56729;52.036;5.332;2023-11-19T02:49:48;13.20;99.90
69533;DHT22;56729;52.036;5.332;2023-11-19T02:50:50;13.10;99.90
69533;DHT22;56729;52.036;5.332;2023-11-19T02:51:55;13.10;99.90
69533;DHT22;56729;52.036;5.332;2023-11-19T02:52:57;13.10;99.90
69533;DHT22;56729;52.036;5.332;2023-11-19T02:53:59;13.10;99.90
69533;DHT22;56729;52.036;5.332;2023-11-19T02:55:01;13.10;99.90
69533;DHT22;56729;52.036;5.332;2023-11-19T02:56:03;13.10;99.90
69533;DHT22;56729;52.036;5.332;2023-11-19T02:57:31;13.10;99.90
69533;DHT22;56729;52.036;5.332;2023-11-19T02:58:34;13.00;99.90
69533;DHT22;56729;52.036;5.332;2023-11-19T02:59:39;13.00;99.90
69533;DHT22;56729;52.036;5.332;2023-11-19T03:00:43;13.00;99.90
69533;DHT22;56729;52.036;5.332;2023-11-19T03:01:54;13.00;99.90
69533;DHT22;56729;52.036;5.332;2023-11-19T03:02:57;13.00;99.90
69533;DHT22;56729;52.036;5.332;2023-11-19T03:04:07;13.00;99.90
69533;DHT22;56729;52.036;5.332;2023-11-19T03:05:13;12.90;99.90
69533;DHT22;56729;52.036;5.332;2023-11-19T03:06:16;12.90;99.90
69533;DHT22;56729;52.036;5.332;2023-11-19T03:07:18;12.90;99.90
69533;DHT22;56729;52.036;5.332;2023-11-19T03:08:20;12.90;99.90
69533;DHT22;56729;52.036;5.332;2023-11-19T03:09:24;12.90;99.90
69533;DHT22;56729;52.036;5.332;2023-11-19T03:10:26;12.90;99.90
69533;DHT22;56729;52.036;5.332;2023-11-19T03:11:28;12.90;99.90
69533;DHT22;56729;52.036;5.332;2023-11-19T03:12:30;12.80;99.90
69533;DHT22;56729;52.036;5.332;2023-11-19T03:13:32;12.80;99.90
69533;DHT22;56729;52.036;5.332;2023-11-19T03:14:34;12.90;99.90
69533;DHT22;56729;52.036;5.332;2023-11-19T03:15:37;12.90;99.90
69533;DHT22;56729;52.036;5.332;2023-11-19T03:16:39;12.80;99.90
69533;DHT22;56729;52.036;5.332;2023-11-19T03:17:42;12.80;99.90
69533;DHT22;56729;52.036;5.332;2023-11-19T03:18:47;12.80;99.90
69533;DHT22;56729;52.036;5.332;2023-11-19T03:19:49;12.80;99.90
69533;DHT22;56729;52.036;5.332;2023-11-19T03:20:51;12.70;99.90
69533;DHT22;56729;52.036;5.332;2023-11-19T03:21:54;12.70;99.90
69533;DHT22;56729;52.036;5.332;2023-11-19T03:22:56;12.80;99.90
69533;DHT22;56729;52.036;5.332;2023-11-19T03:23:59;12.70;99.90
69533;DHT22;56729;52.036;5.332;2023-11-19T03:25:01;12.70;99.90
69533;DHT22;56729;52.036;5.332;2023-11-19T03:26:04;12.70;99.90
69533;DHT22;56729;52.036;5.332;2023-11-19T03:27:07;12.70;99.90
69533;DHT22;56729;52.036;5.332;2023-11-19T03:28:09;12.70;99.90
69533;DHT22;56729;52.036;5.332;2023-11-19T03:29:12;12.70;99.90
69533;DHT22;56729;52.036;5.332;2023-11-19T03:30:14;12.70;99.90
69533;DHT22;56729;52.036;5.332;2023-11-19T03:31:17;12.70;99.90
69533;DHT22;56729;52.036;5.332;2023-11-19T03:32:19;12.70;99.90
69533;DHT22;56729;52.036;5.332;2023-11-19T03:33:21;12.70;99.90
69533;DHT22;56729;52.036;5.332;2023-11-19T03:34:23;12.70;99.90
69533;DHT22;56729;52.036;5.332;2023-11-19T03:35:25;12.70;99.90
69533;DHT22;56729;52.036;5.332;2023-11-19T03:36:32;12.60;99.90
69533;DHT22;56729;52.036;5.332;2023-11-19T03:37:35;12.60;99.90
69533;DHT22;56729;52.036;5.332;2023-11-19T03:38:38;12.60;99.90
69533;DHT22;56729;52.036;5.332;2023-11-19T03:39:40;12.60;99.90
69533;DHT22;56729;52.036;5.332;2023-11-19T03:40:42;12.60;99.90
69533;DHT22;56729;52.036;5.332;2023-11-19T03:41:47;12.60;99.90
69533;DHT22;56729;52.036;5.332;2023-11-19T03:42:49;12.50;99.90
69533;DHT22;56729;52.036;5.332;2023-11-19T03:43:51;12.50;99.90
69533;DHT22;56729;52.036;5.332;2023-11-19T03:44:53;12.50;99.90
69533;DHT22;56729;52.036;5.332;2023-11-19T03:45:59;12.50;99.90
69533;DHT22;56729;52.036;5.332;2023-11-19T03:47:01;12.50;99.90
69533;DHT22;56729;52.036;5.332;2023-11-19T03:48:03;12.50;99.90
69533;DHT22;56729;52.036;5.332;2023-11-19T03:49:05;12.50;99.90
69533;DHT22;56729;52.036;5.332;2023-11-19T03:50:09;12.50;99.90
69533;DHT22;56729;52.036;5.332;2023-11-19T03:51:12;12.50;99.90
69533;DHT22;56729;52.036;5.332;2023-11-19T03:52:18;12.50;99.90
69533;DHT22;56729;52.036;5.332;2023-11-19T03:53:21;12.50;99.90
69533;DHT22;56729;52.036;5.332;2023-11-19T03:54:25;12.50;99.90
69533;DHT22;56729;52.036;5.332;2023-11-19T03:55:29;12.50;99.90
69533;DHT22;56729;52.036;5.332;2023-11-19T03:56:31;12.40;99.90
69533;DHT22;56729;52.036;5.332;2023-11-19T03:57:33;12.40;99.90
69533;DHT22;56729;52.036;5.332;2023-11-19T03:58:35;12.40;99.90
69533;DHT22;56729;52.036;5.332;2023-11-19T03:59:37;12.40;99.90
69533;DHT22;56729;52.036;5.332;2023-11-19T04:00:39;12.40;99.90
69533;DHT22;56729;52.036;5.332;2023-11-19T04:01:42;12.40;99.90
69533;DHT22;56729;52.036;5.332;2023-11-19T04:02:44;12.40;99.90
69533;DHT22;56729;52.036;5.332;2023-11-19T04:03:48;12.30;99.90
69533;DHT22;56729;52.036;5.332;2023-11-19T04:04:54;12.30;99.90
69533;DHT22;56729;52.036;5.332;2023-11-19T04:05:57;12.30;99.90
69533;DHT22;56729;52.036;5.332;2023-11-19T04:07:06;12.30;99.90
69533;DHT22;56729;52.036;5.332;2023-11-19T04:08:08;12.30;99.90
69533;DHT22;56729;52.036;5.332;2023-11-19T04:09:10;12.30;99.90
69533;DHT22;56729;52.036;5.332;2023-11-19T04:10:13;12.30;99.90
69533;DHT22;56729;52.036;5.332;2023-11-19T04:11:16;12.30;99.90
69533;DHT22;56729;52.036;5.332;2023-11-19T04:12:18;12.30;99.90
69533;DHT22;56729;52.036;5.332;2023-11-19T04:13:20;12.30;99.90
69533;DHT22;56729;52.036;5.332;2023-11-19T04:14:22;12.30;99.90
69533;DHT22;56729;52.036;5.332;2023-11-19T04:15:25;12.30;99.90
69533;DHT22;56729;52.036;5.332;2023-11-19T04:16:27;12.30;99.90
69533;DHT22;56729;52.036;5.332;2023-11-19T04:17:31;12.30;99.90
69533;DHT22;56729;52.036;5.332;2023-11-19T04:18:33;12.20;99.90
69533;DHT22;56729;52.036;5.332;2023-11-19T04:19:35;12.20;99.90
69533;DHT22;56729;52.036;5.332;2023-11-19T04:20:37;12.20;99.90
69533;DHT22;56729;52.036;5.332;2023-11-19T04:21:41;12.20;99.90
69533;DHT22;56729;52.036;5.332;2023-11-19T04:22:43;12.20;99.90
69533;DHT22;56729;52.036;5.332;2023-11-19T04:23:45;12.20;99.90
69533;DHT22;56729;52.036;5.332;2023-11-19T04:24:47;12.20;99.90
69533;DHT22;56729;52.036;5.332;2023-11-19T04:25:49;12.20;99.90
69533;DHT22;56729;52.036;5.332;2023-11-19T04:26:51;12.20;99.90
69533;DHT22;56729;52.036;5.332;2023-11-19T04:27:54;12.20;99.90
69533;DHT22;56729;52.036;5.332;2023-11-19T04:28:56;12.20;99.90
69533;DHT22;56729;52.036;5.332;2023-11-19T04:29:58;12.20;99.90
69533;DHT22;56729;52.036;5.332;2023-11-19T04:31:00;12.20;99.90
69533;DHT22;56729;52.036;5.332;2023-11-19T04:32:04;12.20;99.90
69533;DHT22;56729;52.036;5.332;2023-11-19T04:33:11;12.20;99.90
69533;DHT22;56729;52.036;5.332;2023-11-19T04:34:13;12.20;99.90
69533;DHT22;56729;52.036;5.332;2023-11-19T04:35:15;12.20;99.90
69533;DHT22;56729;52.036;5.332;2023-11-19T04:36:18;12.10;99.90
69533;DHT22;56729;52.036;5.332;2023-11-19T04:37:20;12.20;99.90
69533;DHT22;56729;52.036;5.332;2023-11-19T04:38:23;12.10;99.90
69533;DHT22;56729;52.036;5.332;2023-11-19T04:39:24;12.10;99.90
69533;DHT22;56729;52.036;5.332;2023-11-19T04:40:26;12.10;99.90
69533;DHT22;56729;52.036;5.332;2023-11-19T04:41:28;12.10;99.90
69533;DHT22;56729;52.036;5.332;2023-11-19T04:42:30;12.10;99.90
69533;DHT22;56729;52.036;5.332;2023-11-19T04:43:33;12.10;99.90
69533;DHT22;56729;52.036;5.332;2023-11-19T04:44:35;12.10;99.90
69533;DHT22;56729;52.036;5.332;2023-11-19T04:45:37;12.10;99.90
69533;DHT22;56729;52.036;5.332;2023-11-19T04:46:39;12.10;99.90
69533;DHT22;56729;52.036;5.332;2023-11-19T04:47:42;12.10;99.90
69533;DHT22;56729;52.036;5.332;2023-11-19T04:48:44;12.00;99.90
69533;DHT22;56729;52.036;5.332;2023-11-19T04:49:46;12.10;99.90
69533;DHT22;56729;52.036;5.332;2023-11-19T04:50:48;12.10;99.90
69533;DHT22;56729;52.036;5.332;2023-11-19T04:51:50;12.10;99.90
69533;DHT22;56729;52.036;5.332;2023-11-19T04:52:52;12.00;99.90
69533;DHT22;56729;52.036;5.332;2023-11-19T04:53:55;12.00;99.90
69533;DHT22;56729;52.036;5.332;2023-11-19T04:54:58;12.00;99.90
69533;DHT22;56729;52.036;5.332;2023-11-19T04:56:00;12.00;99.90
69533;DHT22;56729;52.036;5.332;2023-11-19T04:57:02;12.00;99.90
69533;DHT22;56729;52.036;5.332;2023-11-19T04:58:04;12.00;99.90
69533;DHT22;56729;52.036;5.332;2023-11-19T04:59:06;12.00;99.90
69533;DHT22;56729;52.036;5.332;2023-11-19T05:00:09;12.00;99.90
69533;DHT22;56729;52.036;5.332;2023-11-19T05:01:15;12.00;99.90
69533;DHT22;56729;52.036;5.332;2023-11-19T05:02:18;12.00;99.90
69533;DHT22;56729;52.036;5.332;2023-11-19T05:03:20;12.00;99.90
69533;DHT22;56729;52.036;5.332;2023-11-19T05:04:24;12.00;99.90
69533;DHT22;56729;52.036;5.332;2023-11-19T05:05:26;12.00;99.90
69533;DHT22;56729;52.036;5.332;2023-11-19T05:06:29;11.90;99.90
69533;DHT22;56729;52.036;5.332;2023-11-19T05:07:31;12.00;99.90
69533;DHT22;56729;52.036;5.332;2023-11-19T05:08:33;12.00;99.90
69533;DHT22;56729;52.036;5.332;2023-11-19T05:09:35;11.90;99.90
69533;DHT22;56729;52.036;5.332;2023-11-19T05:10:37;12.00;99.90
69533;DHT22;56729;52.036;5.332;2023-11-19T05:11:39;12.00;99.90
69533;DHT22;56729;52.036;5.332;2023-11-19T05:12:45;11.90;99.90
69533;DHT22;56729;52.036;5.332;2023-11-19T05:13:47;11.90;99.90
69533;DHT22;56729;52.036;5.332;2023-11-19T05:14:49;11.90;99.90
69533;DHT22;56729;52.036;5.332;2023-11-19T05:15:52;11.90;99.90
69533;DHT22;56729;52.036;5.332;2023-11-19T05:16:54;11.90;99.90
69533;DHT22;56729;52.036;5.332;2023-11-19T05:17:56;11.90;99.90
69533;DHT22;56729;52.036;5.332;2023-11-19T05:18:58;11.90;99.90
69533;DHT22;56729;52.036;5.332;2023-11-19T05:20:00;11.90;99.90
69533;DHT22;56729;52.036;5.332;2023-11-19T05:21:02;11.90;99.90
69533;DHT22;56729;52.036;5.332;2023-11-19T05:22:04;11.90;99.90
69533;DHT22;56729;52.036;5.332;2023-11-19T05:23:07;11.90;99.90
69533;DHT22;56729;52.036;5.332;2023-11-19T05:24:22;11.90;99.90
69533;DHT22;56729;52.036;5.332;2023-11-19T05:25:24;11.90;99.90
69533;DHT22;56729;52.036;5.332;2023-11-19T05:26:26;11.90;99.90
69533;DHT22;56729;52.036;5.332;2023-11-19T05:27:28;11.90;99.90
69533;DHT22;56729;52.036;5.332;2023-11-19T05:28:30;11.90;99.90
69533;DHT22;56729;52.036;5.332;2023-11-19T05:29:32;11.90;99.90
69533;DHT22;56729;52.036;5.332;2023-11-19T05:30:34;11.90;99.90
69533;DHT22;56729;52.036;5.332;2023-11-19T05:31:36;11.90;99.90
69533;DHT22;56729;52.036;5.332;2023-11-19T05:32:40;11.90;99.90
69533;DHT22;56729;52.036;5.332;2023-11-19T05:33:42;11.90;99.90
69533;DHT22;56729;52.036;5.332;2023-11-19T05:34:44;11.90;99.90
69533;DHT22;56729;52.036;5.332;2023-11-19T05:35:48;11.90;99.90
69533;DHT22;56729;52.036;5.332;2023-11-19T05:36:50;11.90;99.90
69533;DHT22;56729;52.036;5.332;2023-11-19T05:37:52;11.90;99.90
69533;DHT22;56729;52.036;5.332;2023-11-19T05:38:55;11.90;99.90
69533;DHT22;56729;52.036;5.332;2023-11-19T05:39:57;11.90;99.90
69533;DHT22;56729;52.036;5.332;2023-11-19T05:40:59;11.90;99.90
69533;DHT22;56729;52.036;5.332;2023-11-19T05:42:01;11.90;99.90
69533;DHT22;56729;52.036;5.332;2023-11-19T05:43:03;11.90;99.90
69533;DHT22;56729;52.036;5.332;2023-11-19T05:44:05;11.80;99.90
69533;DHT22;56729;52.036;5.332;2023-11-19T05:45:11;11.80;99.90
69533;DHT22;56729;52.036;5.332;2023-11-19T05:46:13;11.80;99.90
69533;DHT22;56729;52.036;5.332;2023-11-19T05:47:18;11.80;99.90
69533;DHT22;56729;52.036;5.332;2023-11-19T05:48:20;11.80;99.90
69533;DHT22;56729;52.036;5.332;2023-11-19T05:49:22;11.80;99.90
69533;DHT22;56729;52.036;5.332;2023-11-19T05:50:24;11.80;99.90
69533;DHT22;56729;52.036;5.332;2023-11-19T05:51:26;11.80;99.90
69533;DHT22;56729;52.036;5.332;2023-11-19T05:52:28;11.80;99.90
69533;DHT22;56729;52.036;5.332;2023-11-19T05:53:35;11.80;99.90
69533;DHT22;56729;52.036;5.332;2023-11-19T05:54:37;11.80;99.90
69533;DHT22;56729;52.036;5.332;2023-11-19T05:55:40;11.80;99.90
69533;DHT22;56729;52.036;5.332;2023-11-19T05:56:50;11.80;99.90
69533;DHT22;56729;52.036;5.332;2023-11-19T05:57:55;11.80;99.90
69533;DHT22;56729;52.036;5.332;2023-11-19T05:58:57;11.80;99.90
69533;DHT22;56729;52.036;5.332;2023-11-19T05:59:59;11.80;99.90
69533;DHT22;56729;52.036;5.332;2023-11-19T06:01:01;11.80;99.90
69533;DHT22;56729;52.036;5.332;2023-11-19T06:02:05;11.80;99.90
69533;DHT22;56729;52.036;5.332;2023-11-19T06:03:09;11.80;99.90
69533;DHT22;56729;52.036;5.332;2023-11-19T06:04:12;11.80;99.90
69533;DHT22;56729;52.036;5.332;2023-11-19T06:05:14;11.80;99.90
69533;DHT22;56729;52.036;5.332;2023-11-19T06:06:16;11.80;99.90
69533;DHT22;56729;52.036;5.332;2023-11-19T06:07:18;11.80;99.90
69533;DHT22;56729;52.036;5.332;2023-11-19T06:08:20;11.80;99.90
69533;DHT22;56729;52.036;5.332;2023-11-19T06:09:22;11.80;99.90
69533;DHT22;56729;52.036;5.332;2023-11-19T06:10:27;11.80;99.90
69533;DHT22;56729;52.036;5.332;2023-11-19T06:11:35;11.80;99.90
69533;DHT22;56729;52.036;5.332;2023-11-19T06:12:37;11.80;99.90
69533;DHT22;56729;52.036;5.332;2023-11-19T06:13:40;11.80;99.90
69533;DHT22;56729;52.036;5.332;2023-11-19T06:14:43;11.80;99.90
69533;DHT22;56729;52.036;5.332;2023-11-19T06:15:44;11.80;99.90
69533;DHT22;56729;52.036;5.332;2023-11-19T06:16:46;11.80;99.90
69533;DHT22;56729;52.036;5.332;2023-11-19T06:17:48;11.80;99.90
69533;DHT22;56729;52.036;5.332;2023-11-19T06:18:50;11.80;99.90
69533;DHT22;56729;52.036;5.332;2023-11-19T06:19:52;11.80;99.90
69533;DHT22;56729;52.036;5.332;2023-11-19T06:20:54;11.80;99.90
69533;DHT22;56729;52.036;5.332;2023-11-19T06:21:56;11.80;99.90
69533;DHT22;56729;52.036;5.332;2023-11-19T06:22:58;11.80;99.90
69533;DHT22;56729;52.036;5.332;2023-11-19T06:24:00;11.80;99.90
69533;DHT22;56729;52.036;5.332;2023-11-19T06:25:02;11.80;99.90
69533;DHT22;56729;52.036;5.332;2023-11-19T06:26:09;11.80;99.90
69533;DHT22;56729;52.036;5.332;2023-11-19T06:27:11;11.80;99.90
69533;DHT22;56729;52.036;5.332;2023-11-19T06:28:13;11.80;99.90
69533;DHT22;56729;52.036;5.332;2023-11-19T06:29:16;11.80;99.90
69533;DHT22;56729;52.036;5.332;2023-11-19T06:30:21;11.80;99.90
69533;DHT22;56729;52.036;5.332;2023-11-19T06:31:23;11.80;99.90
69533;DHT22;56729;52.036;5.332;2023-11-19T06:32:25;11.80;99.90
69533;DHT22;56729;52.036;5.332;2023-11-19T06:33:27;11.80;99.90
69533;DHT22;56729;52.036;5.332;2023-11-19T06:34:29;11.80;99.90
69533;DHT22;56729;52.036;5.332;2023-11-19T06:35:31;11.80;99.90
69533;DHT22;56729;52.036;5.332;2023-11-19T06:36:38;11.80;99.90
69533;DHT22;56729;52.036;5.332;2023-11-19T06:37:41;11.80;99.90
69533;DHT22;56729;52.036;5.332;2023-11-19T06:38:43;11.80;99.90
69533;DHT22;56729;52.036;5.332;2023-11-19T06:39:45;11.80;99.90